Time;durP1;ratioP1;P1;durP2;ratioP2;P2;SDS_P1;SDS_P2;PMS_P1;PMS_P2;Temp;Humidity;BMP_temperature;BMP_pressure;BME280_temperature;BME280_humidity;BME280_pressure;Samples;Min_cycle;Max_cycle;Signal;HPM_P1;HPM_P2
2024/01/06 00:02:15;;;;;;;27.48;13.98;;;;;;;5.65;100.00;99956.34;5012565;28;20030;-79
2024/01/06 00:04:41;;;;;;;28.13;14.75;;;;;;;5.71;100.00;99953.22;5017269;28;20030;-78
2024/01/06 00:07:06;;;;;;;30.80;15.20;;;;;;;5.72;100.00;99957.38;4988861;28;20104;-78
2024/01/06 00:09:32;;;;;;;27.95;13.98;;;;;;;5.67;100.00;99964.75;5006552;28;20206;-78
2024/01/06 00:11:57;;;;;;;34.90;14.60;;;;;;;5.63;100.00;99963.41;5019608;28;20082;-79
2024/01/06 00:14:23;;;;;;;27.65;15.05;;;;;;;5.63;100.00;99966.81;5018425;28;20049;-78
2024/01/06 00:16:48;;;;;;;33.38;16.08;;;;;;;5.70;100.00;99969.59;5016218;28;20040;-78
2024/01/06 00:19:14;;;;;;;29.80;15.45;;;;;;;5.64;100.00;99963.25;5016535;28;20037;-79
2024/01/06 00:21:40;;;;;;;29.08;15.18;;;;;;;5.69;100.00;99965.41;5014782;28;20388;-77
2024/01/06 00:24:06;;;;;;;32.45;16.33;;;;;;;5.70;100.00;99971.34;5005140;28;20496;-78
2024/01/06 00:26:32;;;;;;;29.65;17.27;;;;;;;5.75;100.00;99972.53;5008319;28;20784;-79
2024/01/06 00:28:57;;;;;;;30.30;16.02;;;;;;;5.73;100.00;99981.38;5015100;28;20100;-80
2024/01/06 00:31:22;;;;;;;37.28;16.67;;;;;;;5.78;100.00;99984.28;5015796;28;20033;-78
2024/01/06 00:33:48;;;;;;;29.65;16.45;;;;;;;5.71;100.00;99996.13;5000591;28;20080;-78
2024/01/06 00:36:13;;;;;;;31.85;16.42;;;;;;;5.72;100.00;99990.81;5002302;28;20480;-80
2024/01/06 00:38:39;;;;;;;27.70;16.00;;;;;;;5.77;100.00;99996.34;5003259;28;20064;-78
2024/01/06 00:41:04;;;;;;;29.88;16.10;;;;;;;5.72;100.00;99992.59;5003569;28;20025;-77
2024/01/06 00:43:30;;;;;;;29.25;14.95;;;;;;;5.72;100.00;99990.03;5018971;28;20431;-79
2024/01/06 00:45:55;;;;;;;31.15;17.08;;;;;;;5.76;100.00;99988.78;4983838;28;20037;-78
2024/01/06 00:48:21;;;;;;;30.38;16.55;;;;;;;5.75;100.00;99998.28;4987219;28;20569;-78
2024/01/06 00:50:46;;;;;;;29.42;16.25;;;;;;;5.70;100.00;99992.75;5003107;28;20025;-78
2024/01/06 00:53:12;;;;;;;33.00;17.23;;;;;;;5.75;100.00;99987.19;5000451;28;20037;-78
2024/01/06 00:55:38;;;;;;;33.42;16.20;;;;;;;5.79;100.00;99989.31;5019614;28;20492;-78
2024/01/06 00:58:03;;;;;;;33.80;17.63;;;;;;;5.75;100.00;99987.19;5002353;28;20036;-78
2024/01/06 01:00:29;;;;;;;33.42;17.45;;;;;;;5.74;100.00;99991.50;4992803;28;20575;-78
2024/01/06 01:02:54;;;;;;;32.67;16.85;;;;;;;5.75;100.00;99997.47;5017837;28;20645;-78
2024/01/06 01:05:20;;;;;;;34.42;17.50;;;;;;;5.75;100.00;99997.47;5011643;28;20042;-78
2024/01/06 01:07:45;;;;;;;33.78;18.25;;;;;;;5.75;100.00;99990.56;5003646;28;20037;-80
2024/01/06 01:10:11;;;;;;;35.15;17.50;;;;;;;5.73;100.00;99992.47;4988970;28;20042;-78
2024/01/06 01:12:36;;;;;;;35.78;17.73;;;;;;;5.73;100.00;99994.22;5000014;28;20030;-79
2024/01/06 01:15:03;;;;;;;31.25;15.35;;;;;;;5.75;100.00;99993.13;4993965;28;20045;-80
2024/01/06 01:17:28;;;;;;;40.00;19.90;;;;;;;5.74;100.00;100003.56;4997392;28;20511;-81
2024/01/06 01:19:54;;;;;;;40.78;18.58;;;;;;;5.79;100.00;100011.66;5008181;28;20042;-79
2024/01/06 01:22:19;;;;;;;35.83;18.25;;;;;;;5.74;100.00;100001.78;5003752;28;20172;-78
2024/01/06 01:24:45;;;;;;;32.20;17.23;;;;;;;5.76;100.00;100012.72;4974386;28;22625;-79
2024/01/06 01:27:10;;;;;;;45.58;19.98;;;;;;;5.77;100.00;100013.56;4980159;28;20042;-79
2024/01/06 01:29:36;;;;;;;40.35;19.20;;;;;;;5.76;100.00;100009.34;4981547;28;20854;-79
2024/01/06 01:32:01;;;;;;;39.88;20.13;;;;;;;5.76;100.00;100001.66;4989252;28;20107;-78
2024/01/06 01:34:27;;;;;;;41.08;19.65;;;;;;;5.80;100.00;100015.84;4995354;28;20050;-79
2024/01/06 01:36:52;;;;;;;47.35;21.20;;;;;;;5.77;100.00;100016.13;5005367;28;20037;-80
2024/01/06 01:39:17;;;;;;;42.70;20.00;;;;;;;5.77;100.00;100014.38;4996740;28;20030;-78
2024/01/06 01:41:43;;;;;;;47.83;22.17;;;;;;;5.77;100.00;100024.66;4999447;28;20396;-78
2024/01/06 01:44:08;;;;;;;47.47;21.58;;;;;;;5.84;100.00;100030.84;4997860;28;20054;-78
2024/01/06 01:46:34;;;;;;;46.80;23.05;;;;;;;5.83;100.00;100026.66;5014613;28;20034;-80
2024/01/06 01:49:01;;;;;;;45.80;21.35;;;;;;;5.80;100.00;100039.00;5018086;28;20069;-78
2024/01/06 01:51:32;;;;;;;43.88;22.42;;;;;;;5.80;100.00;100032.09;5017416;28;21405;-81
2024/01/06 01:54:00;;;;;;;44.17;22.08;;;;;;;5.81;100.00;100030.34;5007685;28;20037;-78
2024/01/06 01:56:26;;;;;;;49.35;23.55;;;;;;;5.83;100.00;100036.13;5016215;28;20038;-78
2024/01/06 01:58:53;;;;;;;47.28;22.92;;;;;;;5.92;100.00;100030.13;5005781;28;20052;-80
2024/01/06 02:01:18;;;;;;;47.60;22.45;;;;;;;5.90;100.00;100028.66;5019291;28;20530;-78
2024/01/06 02:03:44;;;;;;;51.25;24.83;;;;;;;5.94;100.00;100035.13;5005129;28;20080;-80
2024/01/06 02:06:10;;;;;;;53.55;24.95;;;;;;;5.96;100.00;100041.78;4996479;28;20034;-78
2024/01/06 02:08:36;;;;;;;51.05;23.00;;;;;;;5.88;100.00;100043.41;5003252;28;20080;-78
2024/01/06 02:11:01;;;;;;;48.35;22.67;;;;;;;5.82;100.00;100043.06;5014494;28;21507;-81
2024/01/06 02:13:37;;;;;;;50.20;23.92;;;;;;;5.85;100.00;100044.53;5003549;28;20041;-81
2024/01/06 02:16:04;;;;;;;53.83;25.20;;;;;;;5.85;100.00;100054.81;4998253;28;20125;-80
2024/01/06 02:18:31;;;;;;;48.25;23.92;;;;;;;5.96;100.00;100052.06;5013961;28;20048;-80
2024/01/06 02:21:01;;;;;;;55.08;25.00;;;;;;;5.97;100.00;100050.31;5012808;28;20156;-78
2024/01/06 02:23:27;;;;;;;53.95;26.05;;;;;;;5.99;100.00;100054.38;5005538;28;21174;-78
2024/01/06 02:25:52;;;;;;;50.85;24.20;;;;;;;5.90;100.00;100057.78;5009117;28;20118;-78
2024/01/06 02:28:18;;;;;;;51.63;25.17;;;;;;;5.96;100.00;100064.94;4999899;28;20446;-77
2024/01/06 02:30:43;;;;;;;56.17;26.23;;;;;;;5.89;100.00;100075.94;5001763;28;20029;-79
2024/01/06 02:33:09;;;;;;;57.97;25.60;;;;;;;5.97;100.00;100076.03;5016646;28;20038;-78
2024/01/06 02:35:35;;;;;;;51.95;23.60;;;;;;;6.02;100.00;100074.66;5005126;28;20034;-77
2024/01/06 02:38:00;;;;;;;51.45;22.77;;;;;;;5.88;100.00;100079.44;4996521;28;20040;-77
2024/01/06 02:40:26;;;;;;;48.38;22.80;;;;;;;5.88;100.00;100080.28;4983676;28;20060;-79
2024/01/06 02:42:51;;;;;;;51.20;22.52;;;;;;;5.87;100.00;100082.97;5001929;28;20069;-77
2024/01/06 02:45:17;;;;;;;49.58;22.38;;;;;;;5.80;100.00;100075.00;5017652;28;20419;-77
2024/01/06 02:47:42;;;;;;;54.35;23.23;;;;;;;5.80;100.00;100086.13;4999913;28;20037;-79
2024/01/06 02:50:08;;;;;;;49.13;21.88;;;;;;;5.76;100.00;100087.34;5016164;28;20624;-77
2024/01/06 02:52:33;;;;;;;46.72;22.27;;;;;;;5.84;100.00;100092.63;5014959;28;20114;-77
2024/01/06 02:55:00;;;;;;;47.85;22.90;;;;;;;5.77;100.00;100096.69;4999483;28;20099;-80
2024/01/06 02:57:26;;;;;;;48.83;22.17;;;;;;;5.80;100.00;100098.16;4999724;28;20069;-77
2024/01/06 02:59:52;;;;;;;47.97;22.95;;;;;;;5.77;100.00;100109.56;5015112;28;20483;-78
2024/01/06 03:02:17;;;;;;;47.95;22.63;;;;;;;5.76;100.00;100107.13;4987708;28;20046;-78
2024/01/06 03:04:43;;;;;;;49.90;23.77;;;;;;;5.80;100.00;100116.19;5000825;28;20041;-77
2024/01/06 03:07:08;;;;;;;47.78;23.20;;;;;;;5.76;100.00;100113.06;5017995;28;20029;-77
2024/01/06 03:09:34;;;;;;;47.33;21.95;;;;;;;5.74;100.00;100121.91;5017599;28;20426;-77
2024/01/06 03:11:59;;;;;;;49.65;23.83;;;;;;;5.76;100.00;100122.56;4998659;28;20037;-76
2024/01/06 03:14:24;;;;;;;49.50;24.55;;;;;;;5.71;100.00;100120.44;5004644;28;20052;-77
2024/01/06 03:16:50;;;;;;;51.33;23.58;;;;;;;5.70;100.00;100125.72;5014902;28;20048;-77
2024/01/06 03:19:15;;;;;;;55.22;22.77;;;;;;;5.78;100.00;100123.22;5003392;28;20064;-77
2024/01/06 03:21:41;;;;;;;50.97;23.67;;;;;;;5.82;100.00;100132.28;5004367;28;20038;-77
2024/01/06 03:24:08;;;;;;;55.45;24.83;;;;;;;5.79;100.00;100133.38;5010964;28;20053;-78
2024/01/06 03:26:34;;;;;;;51.80;24.95;;;;;;;5.74;100.00;100137.34;4982328;28;20128;-77
2024/01/06 03:28:59;;;;;;;54.30;23.25;;;;;;;5.80;100.00;100140.16;5013041;28;20045;-76
2024/01/06 03:31:25;;;;;;;50.60;24.00;;;;;;;5.77;100.00;100140.44;4987472;28;20021;-77
2024/01/06 03:33:53;;;;;;;43.70;19.55;;;;;;;5.60;100.00;100154.84;5001102;28;20492;-77
2024/01/06 03:36:19;;;;;;;30.23;14.63;;;;;;;5.39;100.00;100151.66;5007834;28;20034;-77
2024/01/06 03:38:44;;;;;;;28.63;13.52;;;;;;;5.19;100.00;100154.22;5013151;28;20096;-80
2024/01/06 03:41:10;;;;;;;28.13;12.93;;;;;;;5.18;100.00;100164.63;4999041;28;20045;-77
2024/01/06 03:43:35;;;;;;;28.75;13.02;;;;;;;5.12;100.00;100162.63;5004701;28;20053;-77
2024/01/06 03:46:00;;;;;;;30.83;13.40;;;;;;;5.00;100.00;100173.03;5000273;28;20029;-77
2024/01/06 03:48:26;;;;;;;25.00;11.70;;;;;;;4.92;100.00;100177.25;5004632;28;20034;-79
2024/01/06 03:50:52;;;;;;;26.58;12.10;;;;;;;4.81;100.00;100180.72;4990618;28;20459;-77
2024/01/06 03:53:17;;;;;;;29.58;12.38;;;;;;;4.80;100.00;100190.22;5012316;28;20051;-78
2024/01/06 03:55:43;;;;;;;26.17;11.57;;;;;;;4.85;100.00;100190.59;4988256;28;20025;-77
2024/01/06 03:58:08;;;;;;;24.83;11.40;;;;;;;4.85;100.00;100190.59;5010466;28;20482;-78
2024/01/06 04:00:34;;;;;;;25.17;11.98;;;;;;;4.91;100.00;100199.53;5002746;28;20646;-77
2024/01/06 04:02:59;;;;;;;25.77;11.40;;;;;;;4.85;100.00;100200.06;5002612;28;20038;-77
2024/01/06 04:05:25;;;;;;;24.00;11.40;;;;;;;4.85;100.00;100203.44;4986960;28;20092;-77
2024/01/06 04:07:50;;;;;;;23.20;10.27;;;;;;;4.87;100.00;100205.88;5013939;28;20037;-77
2024/01/06 04:10:16;;;;;;;20.60;10.25;;;;;;;4.76;100.00;100206.00;5014735;28;20033;-77
2024/01/06 04:12:41;;;;;;;24.42;10.75;;;;;;;4.76;100.00;100201.66;4999325;28;20072;-78
2024/01/06 04:15:07;;;;;;;22.75;10.23;;;;;;;4.86;100.00;100211.97;4985183;28;20030;-78
2024/01/06 04:17:33;;;;;;;23.92;11.13;;;;;;;4.87;100.00;100208.44;5005361;28;20041;-77
2024/01/06 04:19:58;;;;;;;22.33;10.30;;;;;;;4.77;100.00;100212.78;5015596;28;20034;-76
2024/01/06 04:22:24;;;;;;;20.60;9.98;;;;;;;4.73;100.00;100211.38;5003562;28;20045;-79
2024/01/06 04:24:49;;;;;;;20.38;10.18;;;;;;;4.73;100.00;100207.09;4986241;28;20033;-77
2024/01/06 04:27:15;;;;;;;18.98;9.05;;;;;;;4.70;100.00;100216.81;5012707;28;20026;-79
2024/01/06 04:29:40;;;;;;;21.08;10.10;;;;;;;4.83;100.00;100214.81;5014841;28;20041;-77
2024/01/06 04:32:07;;;;;;;21.33;9.88;;;;;;;4.81;100.00;100209.78;5006098;28;20037;-79
2024/01/06 04:34:33;;;;;;;16.67;8.27;;;;;;;4.90;100.00;100215.06;4983609;28;20050;-80
2024/01/06 04:36:58;;;;;;;19.67;9.10;;;;;;;4.83;100.00;100213.03;5006637;28;20083;-76
2024/01/06 04:39:24;;;;;;;20.80;9.18;;;;;;;4.81;100.00;100212.38;5019289;28;20052;-78
2024/01/06 04:41:49;;;;;;;22.40;9.93;;;;;;;4.70;100.00;100212.47;5004638;28;20026;-77
2024/01/06 04:44:15;;;;;;;21.95;8.95;;;;;;;4.76;100.00;100223.97;4999002;28;20046;-77
2024/01/06 04:46:40;;;;;;;17.63;8.57;;;;;;;4.69;100.00;100218.56;4995626;28;20029;-77
2024/01/06 04:49:06;;;;;;;22.17;10.43;;;;;;;4.73;100.00;100219.09;5001843;28;20092;-76
2024/01/06 04:51:31;;;;;;;20.88;9.25;;;;;;;4.75;100.00;100224.94;5018693;28;20026;-77
2024/01/06 04:53:57;;;;;;;21.42;9.73;;;;;;;4.69;100.00;100223.72;5002057;28;20049;-76
2024/01/06 04:56:22;;;;;;;21.23;9.73;;;;;;;4.70;100.00;100222.75;5000551;28;20034;-77
2024/01/06 04:58:48;;;;;;;21.60;10.02;;;;;;;4.80;100.00;100227.91;5022365;28;20049;-78
2024/01/06 05:01:13;;;;;;;21.67;9.90;;;;;;;4.73;100.00;100230.22;4986798;28;20029;-79
2024/01/06 05:03:39;;;;;;;21.60;9.57;;;;;;;4.71;100.00;100231.25;5014811;28;20633;-77
2024/01/06 05:06:04;;;;;;;21.05;10.18;;;;;;;4.62;100.00;100241.38;5004995;28;20034;-77
2024/01/06 05:08:33;;;;;;;22.25;9.95;;;;;;;4.67;100.00;100235.84;5001779;28;20144;-77
2024/01/06 05:10:59;;;;;;;21.05;10.00;;;;;;;4.78;100.00;100240.06;5009673;28;20025;-77
2024/01/06 05:13:24;;;;;;;20.02;9.52;;;;;;;4.66;100.00;100244.50;5015716;28;20049;-77
2024/01/06 05:15:50;;;;;;;25.67;10.60;;;;;;;4.58;100.00;100244.38;5005350;28;20037;-77
2024/01/06 05:18:15;;;;;;;29.80;10.07;;;;;;;4.68;100.00;100246.00;5000365;28;20038;-76
2024/01/06 05:20:41;;;;;;;20.83;10.23;;;;;;;4.73;100.00;100244.78;5016584;28;20033;-77
2024/01/06 05:23:07;;;;;;;22.25;10.30;;;;;;;4.66;100.00;100242.75;5004084;28;20037;-78
2024/01/06 05:25:32;;;;;;;21.15;10.27;;;;;;;4.66;100.00;100245.31;5003807;28;20029;-80
2024/01/06 05:27:58;;;;;;;23.23;10.93;;;;;;;4.71;100.00;100249.25;5003308;28;20030;-76
2024/01/06 05:30:23;;;;;;;21.27;10.25;;;;;;;4.66;100.00;100252.22;5022594;28;20435;-78
2024/01/06 05:32:49;;;;;;;22.35;10.25;;;;;;;4.64;100.00;100254.09;5018358;28;20036;-77
2024/01/06 05:35:16;;;;;;;23.13;10.02;;;;;;;4.54;100.00;100261.78;5001515;28;20037;-77
2024/01/06 05:37:41;;;;;;;23.48;11.27;;;;;;;4.53;100.00;100264.47;5014427;28;20400;-77
2024/01/06 05:40:07;;;;;;;23.75;10.40;;;;;;;4.61;100.00;100260.28;5002954;28;20046;-77
2024/01/06 05:42:34;;;;;;;24.10;10.48;;;;;;;4.75;100.00;100264.28;5019961;28;20041;-77
2024/01/06 05:44:59;;;;;;;23.67;10.93;;;;;;;4.72;100.00;100274.00;5020553;28;20041;-78
2024/01/06 05:47:25;;;;;;;23.45;10.20;;;;;;;4.59;100.00;100267.31;5002841;28;20041;-80
2024/01/06 05:49:50;;;;;;;24.58;10.82;;;;;;;4.65;100.00;100269.38;5018201;28;20053;-78
2024/01/06 05:52:16;;;;;;;25.05;10.80;;;;;;;4.67;100.00;100269.22;5015372;28;20025;-77
2024/01/06 05:54:42;;;;;;;21.10;10.02;;;;;;;4.60;100.00;100270.72;5006518;28;20467;-77
2024/01/06 05:57:08;;;;;;;22.80;10.35;;;;;;;4.62;100.00;100274.78;5002491;28;20026;-77
2024/01/06 05:59:35;;;;;;;24.77;11.52;;;;;;;4.62;100.00;100289.38;4986346;28;20053;-77
2024/01/06 06:02:03;;;;;;;23.88;10.38;;;;;;;4.56;100.00;100288.16;5005861;28;20043;-77
2024/01/06 06:04:29;;;;;;;22.77;10.27;;;;;;;4.56;100.00;100290.72;5011239;28;20049;-77
2024/01/06 06:06:54;;;;;;;23.30;10.40;;;;;;;4.46;100.00;100285.53;5004054;28;20030;-76
2024/01/06 06:09:21;;;;;;;22.65;11.18;;;;;;;4.60;100.00;100293.84;4984615;28;20046;-79
2024/01/06 06:11:47;;;;;;;21.55;9.88;;;;;;;4.62;100.00;100297.09;4989985;28;20044;-77
2024/01/06 06:14:12;;;;;;;21.95;10.27;;;;;;;4.57;100.00;100301.78;5013760;28;20432;-77
2024/01/06 06:16:38;;;;;;;26.88;11.52;;;;;;;4.54;100.00;100309.75;5006009;28;20037;-77
2024/01/06 06:19:03;;;;;;;25.98;10.18;;;;;;;4.54;100.00;100312.31;4999429;28;20125;-78
2024/01/06 06:21:29;;;;;;;23.23;10.07;;;;;;;4.52;100.00;100325.31;5003233;28;20105;-77
2024/01/06 06:23:54;;;;;;;23.77;10.50;;;;;;;4.44;100.00;100325.91;5002946;28;20057;-80
2024/01/06 06:26:20;;;;;;;19.60;9.75;;;;;;;4.29;100.00;100329.75;4999331;28;20033;-77
2024/01/06 06:28:45;;;;;;;22.92;10.35;;;;;;;4.40;100.00;100331.44;5022280;28;20660;-79
2024/01/06 06:31:11;;;;;;;27.27;11.20;;;;;;;4.40;100.00;100339.13;4992832;28;20021;-77
2024/01/06 06:33:36;;;;;;;23.75;10.55;;;;;;;4.25;100.00;100342.03;4991891;28;20480;-78
2024/01/06 06:36:02;;;;;;;23.33;11.40;;;;;;;4.33;100.00;100348.28;5006060;28;20026;-77
2024/01/06 06:38:28;;;;;;;20.80;9.85;;;;;;;4.32;100.00;100351.81;5006583;28;20527;-77
2024/01/06 06:40:53;;;;;;;21.80;10.40;;;;;;;4.32;100.00;100360.31;5006916;28;20834;-77
2024/01/06 06:43:19;;;;;;;23.52;10.38;;;;;;;4.46;100.00;100366.88;5018863;28;20117;-77
2024/01/06 06:45:44;;;;;;;22.35;10.75;;;;;;;4.36;100.00;100366.81;5008948;28;20044;-78
2024/01/06 06:48:10;;;;;;;21.33;10.48;;;;;;;4.37;100.00;100359.94;5005260;28;20088;-77
2024/01/06 06:50:36;;;;;;;29.60;11.98;;;;;;;4.28;100.00;100367.44;5007218;28;20035;-79
2024/01/06 06:53:01;;;;;;;25.80;11.18;;;;;;;4.22;100.00;100372.25;5005614;28;20076;-76
2024/01/06 06:55:27;;;;;;;26.20;11.18;;;;;;;4.39;100.00;100374.28;5009125;28;20026;-76
2024/01/06 06:57:53;;;;;;;22.52;10.15;;;;;;;4.24;100.00;100385.81;5003293;28;20488;-76
2024/01/06 07:00:19;;;;;;;27.33;11.75;;;;;;;4.22;100.00;100382.53;5016885;28;20045;-77
2024/01/06 07:02:44;;;;;;;26.90;11.25;;;;;;;4.16;100.00;100385.59;5004868;28;20033;-78
2024/01/06 07:05:10;;;;;;;26.15;11.85;;;;;;;4.19;100.00;100387.94;5000371;28;20045;-77
2024/01/06 07:07:35;;;;;;;26.83;12.48;;;;;;;4.02;100.00;100389.28;5001057;28;20037;-77
2024/01/06 07:10:03;;;;;;;23.65;10.75;;;;;;;4.10;100.00;100395.41;5018076;28;20099;-76
2024/01/06 07:12:28;;;;;;;26.52;11.18;;;;;;;4.07;100.00;100395.69;5022751;28;20057;-77
2024/01/06 07:14:54;;;;;;;26.13;10.80;;;;;;;4.09;100.00;100398.94;4987619;28;20068;-78
2024/01/06 07:17:19;;;;;;;24.15;11.68;;;;;;;4.19;100.00;100411.03;5009098;28;20064;-77
2024/01/06 07:19:46;;;;;;;22.88;11.35;;;;;;;4.08;100.00;100412.69;4997887;28;20139;-79
2024/01/06 07:22:11;;;;;;;27.25;11.65;;;;;;;4.08;100.00;100425.50;5007172;28;20030;-79
2024/01/06 07:24:37;;;;;;;29.92;12.38;;;;;;;4.05;100.00;100420.66;4989270;28;20044;-77
2024/01/06 07:27:03;;;;;;;27.30;11.35;;;;;;;4.17;100.00;100429.09;5025332;28;20029;-78
2024/01/06 07:29:29;;;;;;;25.58;11.85;;;;;;;4.10;100.00;100430.53;5021103;28;20094;-79
2024/01/06 07:31:54;;;;;;;26.27;11.52;;;;;;;4.10;100.00;100436.47;5008286;28;20025;-78
2024/01/06 07:34:19;;;;;;;23.65;11.43;;;;;;;4.07;100.00;100438.50;5003629;28;20092;-77
2024/01/06 07:36:45;;;;;;;22.15;10.38;;;;;;;3.99;100.00;100444.22;5014675;28;20531;-78
2024/01/06 07:39:10;;;;;;;25.98;12.05;;;;;;;4.04;100.00;100446.44;4987005;28;20053;-77
2024/01/06 07:41:36;;;;;;;27.27;12.80;;;;;;;4.12;100.00;100453.50;5018425;28;20041;-77
2024/01/06 07:44:02;;;;;;;29.52;12.82;;;;;;;4.04;100.00;100447.22;5019728;28;20046;-77
2024/01/06 07:46:28;;;;;;;22.08;10.55;;;;;;;4.03;100.00;100463.59;5006953;28;20022;-77
2024/01/06 07:48:54;;;;;;;25.90;10.70;;;;;;;4.07;100.00;100464.16;4988018;28;20088;-77
2024/01/06 07:51:20;;;;;;;21.42;10.27;;;;;;;4.20;100.00;100472.50;4992326;28;20056;-77
2024/01/06 07:53:45;;;;;;;22.50;9.93;;;;;;;4.14;100.00;100470.41;5003080;28;20048;-77
2024/01/06 07:56:11;;;;;;;20.50;9.80;;;;;;;4.13;100.00;100473.13;5009302;28;20037;-77
2024/01/06 07:58:36;;;;;;;21.83;10.48;;;;;;;4.08;100.00;100486.28;5009457;28;20877;-77
2024/01/06 08:01:02;;;;;;;20.17;9.68;;;;;;;4.17;100.00;100484.75;5016198;28;20643;-77
2024/01/06 08:03:28;;;;;;;20.95;10.02;;;;;;;4.05;100.00;100486.53;4999817;28;20100;-78
2024/01/06 08:05:54;;;;;;;21.25;9.80;;;;;;;4.19;100.00;100493.16;5007628;28;20038;-80
2024/01/06 08:08:19;;;;;;;21.08;9.73;;;;;;;4.13;100.00;100504.72;5019723;28;20519;-77
2024/01/06 08:10:45;;;;;;;27.95;10.30;;;;;;;4.20;100.00;100503.31;5022532;28;20053;-77
2024/01/06 08:13:11;;;;;;;20.08;9.93;;;;;;;4.20;100.00;100505.88;4992909;28;20482;-77
2024/01/06 08:15:37;;;;;;;23.30;9.55;;;;;;;4.17;100.00;100510.44;5007355;28;20045;-78
2024/01/06 08:18:03;;;;;;;20.80;8.55;;;;;;;4.04;100.00;100508.81;4999700;28;20029;-78
2024/01/06 08:20:28;;;;;;;20.48;9.15;;;;;;;4.09;100.00;100511.84;5006507;28;20030;-77
2024/01/06 08:22:54;;;;;;;20.45;9.55;;;;;;;4.00;100.00;100512.56;5015131;28;20507;-77
2024/01/06 08:25:20;;;;;;;21.70;8.95;;;;;;;3.94;100.00;100514.78;5018008;28;20038;-77
2024/01/06 08:27:46;;;;;;;21.83;9.65;;;;;;;3.98;100.00;100518.75;5017056;28;20040;-77
2024/01/06 08:30:12;;;;;;;23.23;10.00;;;;;;;4.11;100.00;100524.56;5004772;28;20037;-77
2024/01/06 08:32:38;;;;;;;24.70;9.68;;;;;;;4.13;100.00;100521.88;5017859;28;20029;-77
2024/01/06 08:35:04;;;;;;;23.95;10.93;;;;;;;4.23;100.00;100531.28;4993278;28;20034;-77
2024/01/06 08:37:30;;;;;;;25.17;11.65;;;;;;;4.26;100.00;100536.19;5019250;28;20036;-77
2024/01/06 08:39:55;;;;;;;22.08;10.68;;;;;;;4.20;100.00;100543.53;4983940;28;20041;-77
2024/01/06 08:42:21;;;;;;;21.98;10.20;;;;;;;4.14;100.00;100544.84;4989422;28;20550;-77
2024/01/06 08:44:47;;;;;;;23.38;10.20;;;;;;;4.18;100.00;100545.41;5020723;28;20045;-77
2024/01/06 08:47:12;;;;;;;26.35;10.75;;;;;;;4.31;100.00;100551.19;5005222;28;20571;-78
2024/01/06 08:49:38;;;;;;;24.85;11.05;;;;;;;4.39;100.00;100553.16;5016824;28;20483;-79
2024/01/06 08:52:04;;;;;;;23.52;11.90;;;;;;;4.35;100.00;100564.63;5001456;28;20301;-77
2024/01/06 08:54:32;;;;;;;30.77;12.07;;;;;;;4.40;100.00;100565.06;5001430;28;20117;-80
2024/01/06 08:56:57;;;;;;;25.75;10.10;;;;;;;4.36;100.00;100568.81;5006266;28;20072;-77
2024/01/06 08:59:23;;;;;;;26.95;10.23;;;;;;;4.32;100.00;100575.16;5023129;28;20033;-79
2024/01/06 09:01:48;;;;;;;24.48;10.55;;;;;;;4.45;100.00;100584.31;5016953;28;20399;-78
2024/01/06 09:04:14;;;;;;;27.50;11.32;;;;;;;4.51;100.00;100585.59;5005152;28;20524;-76
2024/01/06 09:06:41;;;;;;;24.67;11.23;;;;;;;4.45;100.00;100580.94;5021215;28;20034;-77
2024/01/06 09:09:08;;;;;;;28.50;13.32;;;;;;;4.48;100.00;100588.38;5004598;28;20042;-77
2024/01/06 09:11:36;;;;;;;28.45;12.55;;;;;;;4.44;100.00;100595.50;5014671;28;20083;-77
2024/01/06 09:14:02;;;;;;;26.90;12.98;;;;;;;4.40;100.00;100603.59;4997717;28;20045;-78
2024/01/06 09:16:27;;;;;;;25.77;11.65;;;;;;;4.38;100.00;100606.28;5014979;28;20075;-77
2024/01/06 09:18:54;;;;;;;26.83;11.88;;;;;;;4.34;100.00;100615.16;5011819;28;20076;-77
2024/01/06 09:21:19;;;;;;;26.52;11.15;;;;;;;4.23;100.00;100618.53;5009911;28;20034;-77
2024/01/06 09:23:45;;;;;;;27.95;12.18;;;;;;;4.25;100.00;100618.44;5003154;28;20045;-79
2024/01/06 09:29:57;;;;;;;27.30;12.38;;;;;;;4.20;100.00;100626.50;5031834;28;20616;-77
2024/01/06 09:32:23;;;;;;;29.95;12.43;;;;;;;4.11;100.00;100637.47;5054836;28;20041;-76
2024/01/06 09:34:49;;;;;;;28.88;11.02;;;;;;;4.20;100.00;100630.81;5038425;28;20063;-77
2024/01/06 09:37:15;;;;;;;28.30;12.68;;;;;;;4.24;100.00;100637.34;5055576;28;20036;-76
2024/01/06 09:39:40;;;;;;;28.63;12.20;;;;;;;4.26;100.00;100635.47;5051203;28;20064;-76
2024/01/06 09:42:08;;;;;;;27.48;12.10;;;;;;;4.21;100.00;100643.53;5052577;28;20285;-76
2024/01/06 09:44:37;;;;;;;24.08;11.38;;;;;;;4.20;100.00;100641.91;5040525;28;20079;-76
2024/01/06 09:47:04;;;;;;;27.88;10.70;;;;;;;4.21;100.00;100650.41;5060218;28;20107;-76
2024/01/06 09:49:33;;;;;;;34.08;13.45;;;;;;;4.20;100.00;100647.03;5041764;28;20386;-77
2024/01/06 09:52:00;;;;;;;39.03;14.07;;;;;;;4.07;100.00;100646.34;5027416;28;20029;-77
2024/01/06 09:54:33;;;;;;;33.10;13.50;;;;;;;3.98;100.00;100652.19;5043297;28;20489;-77
2024/01/06 09:57:01;;;;;;;29.10;11.65;;;;;;;4.03;100.00;100650.06;5030847;23;20034;-72
2024/01/06 09:59:30;;;;;;;35.65;13.65;;;;;;;3.91;100.00;100662.06;5019276;28;20509;-73
2024/01/06 10:01:57;;;;;;;40.20;16.35;;;;;;;3.95;100.00;100660.09;5045565;28;20505;-73
2024/01/06 10:04:23;;;;;;;33.35;12.73;;;;;;;3.88;100.00;100675.13;5026177;28;20068;-72
2024/01/06 10:06:49;;;;;;;34.83;13.70;;;;;;;3.93;100.00;100669.66;5039867;28;20033;-73
2024/01/06 10:09:14;;;;;;;38.00;16.35;;;;;;;3.74;100.00;100671.03;5029511;28;20052;-73
2024/01/06 10:11:41;;;;;;;35.50;14.77;;;;;;;3.73;100.00;100674.56;5021140;28;20052;-73
2024/01/06 10:14:07;;;;;;;40.20;18.50;;;;;;;3.66;100.00;100679.31;5031280;28;20041;-73
2024/01/06 10:16:34;;;;;;;35.15;15.07;;;;;;;3.56;100.00;100682.66;5044956;28;20098;-73
2024/01/06 10:19:00;;;;;;;36.00;15.15;;;;;;;3.53;100.00;100683.72;5031344;28;20041;-73
2024/01/06 10:21:26;;;;;;;39.80;17.52;;;;;;;3.48;100.00;100689.19;5023039;28;20036;-73
2024/01/06 10:23:53;;;;;;;36.40;15.50;;;;;;;3.50;100.00;100687.34;5049100;28;20042;-73
2024/01/06 10:26:19;;;;;;;34.30;14.63;;;;;;;3.40;100.00;100688.09;5044926;28;20043;-73
2024/01/06 10:28:44;;;;;;;37.28;15.45;;;;;;;3.48;100.00;100689.19;5034473;28;20037;-73
2024/01/06 10:31:10;;;;;;;35.65;14.48;;;;;;;3.41;100.00;100692.28;5016916;28;20029;-73
2024/01/06 10:33:35;;;;;;;32.78;14.77;;;;;;;3.48;100.00;100693.47;5027526;28;20041;-73
2024/01/06 10:36:04;;;;;;;33.45;14.20;;;;;;;3.48;100.00;100691.75;5028327;28;20037;-73
2024/01/06 10:38:30;;;;;;;39.03;15.88;;;;;;;3.41;100.00;100699.97;5030992;28;20048;-72
2024/01/06 10:41:07;;;;;;;34.88;15.68;;;;;;;3.40;100.00;100694.03;5030405;28;20025;-73
2024/01/06 10:43:38;;;;;;;37.25;16.50;;;;;;;3.34;100.00;100699.63;5032224;28;20049;-73
2024/01/06 10:46:04;;;;;;;45.53;16.23;;;;;;;3.30;100.00;100703.34;5050258;28;20032;-73
2024/01/06 10:48:33;;;;;;;42.92;15.98;;;;;;;3.29;100.00;100710.19;5046765;28;20554;-73
2024/01/06 10:50:59;;;;;;;38.40;15.55;;;;;;;3.30;100.00;100705.91;5022258;28;20120;-72
2024/01/06 10:53:26;;;;;;;46.80;18.60;;;;;;;3.32;100.00;100711.75;5022198;28;20041;-73
2024/01/06 10:55:53;;;;;;;44.70;16.80;;;;;;;3.28;100.00;100708.56;5045815;28;20412;-73
2024/01/06 10:58:19;;;;;;;47.53;17.75;;;;;;;3.24;100.00;100709.72;5044943;28;20037;-72
2024/01/06 11:00:45;;;;;;;41.50;17.10;;;;;;;3.24;100.00;100712.28;5044356;28;20450;-73
2024/01/06 11:03:11;;;;;;;41.92;16.90;;;;;;;3.18;100.00;100714.47;5028072;28;20037;-73
2024/01/06 11:05:37;;;;;;;45.53;17.42;;;;;;;3.12;100.00;100710.59;5028796;28;20052;-73
2024/01/06 11:08:04;;;;;;;44.67;18.92;;;;;;;3.17;100.00;100717.97;5048157;28;20687;-73
2024/01/06 11:10:32;;;;;;;48.42;18.85;;;;;;;3.14;100.00;100710.50;5051454;28;20376;-73